sensor_id;sensor_type;location;lat;lon;timestamp;pressure;altitude;pressure_sealevel;temperature;humidity
76195;BME280;64964;48.694;21.206;2024-03-17T00:00:30;98062.22;;;9.08;74.44
76195;BME280;64964;48.694;21.206;2024-03-17T00:02:55;98072.63;;;9.18;74.33
76195;BME280;64964;48.694;21.206;2024-03-17T00:05:20;98063.59;;;9.20;74.18
76195;BME280;64964;48.694;21.206;2024-03-17T00:07:46;98063.25;;;9.23;73.88
76195;BME280;64964;48.694;21.206;2024-03-17T00:10:11;98070.03;;;9.26;73.83
76195;BME280;64964;48.694;21.206;2024-03-17T00:12:37;98068.22;;;9.27;73.78
76195;BME280;64964;48.694;21.206;2024-03-17T00:15:04;98077.94;;;9.26;73.61
76195;BME280;64964;48.694;21.206;2024-03-17T00:17:30;98071.53;;;9.29;73.76
76195;BME280;64964;48.694;21.206;2024-03-17T00:19:55;98070.72;;;9.28;73.79
76195;BME280;64964;48.694;21.206;2024-03-17T00:22:21;98075.50;;;9.33;73.43
76195;BME280;64964;48.694;21.206;2024-03-17T00:24:47;98073.00;;;9.31;73.39
76195;BME280;64964;48.694;21.206;2024-03-17T00:27:12;98061.63;;;9.31;73.38
76195;BME280;64964;48.694;21.206;2024-03-17T00:29:38;98065.91;;;9.32;73.27
76195;BME280;64964;48.694;21.206;2024-03-17T00:32:05;98061.81;;;9.29;73.34
76195;BME280;64964;48.694;21.206;2024-03-17T00:34:31;98065.91;;;9.32;73.13
76195;BME280;64964;48.694;21.206;2024-03-17T00:36:56;98071.19;;;9.32;73.33
76195;BME280;64964;48.694;21.206;2024-03-17T00:39:22;98065.91;;;9.32;73.21
76195;BME280;64964;48.694;21.206;2024-03-17T00:41:48;98065.78;;;9.33;73.18
76195;BME280;64964;48.694;21.206;2024-03-17T00:44:14;98077.16;;;9.34;73.70
76195;BME280;64964;48.694;21.206;2024-03-17T00:46:39;98069.91;;;9.36;73.14
76195;BME280;64964;48.694;21.206;2024-03-17T00:49:08;98056.53;;;9.29;73.20
76195;BME280;64964;48.694;21.206;2024-03-17T00:51:34;98063.97;;;9.34;73.40
76195;BME280;64964;48.694;21.206;2024-03-17T00:53:59;98057.19;;;9.31;73.50
76195;BME280;64964;48.694;21.206;2024-03-17T00:56:25;98058.88;;;9.32;73.39
76195;BME280;64964;48.694;21.206;2024-03-17T00:58:50;98045.81;;;9.31;73.49
76195;BME280;64964;48.694;21.206;2024-03-17T01:01:17;98027.81;;;9.26;73.24
76195;BME280;64964;48.694;21.206;2024-03-17T01:03:42;98026.84;;;9.27;73.32
76195;BME280;64964;48.694;21.206;2024-03-17T01:06:07;98032.13;;;9.35;73.47
76195;BME280;64964;48.694;21.206;2024-03-17T01:08:33;98033.13;;;9.34;73.27
76195;BME280;64964;48.694;21.206;2024-03-17T01:10:58;98031.47;;;9.33;73.51
76195;BME280;64964;48.694;21.206;2024-03-17T01:13:24;98039.22;;;9.35;73.41
76195;BME280;64964;48.694;21.206;2024-03-17T01:15:53;98048.31;;;9.32;73.19
76195;BME280;64964;48.694;21.206;2024-03-17T01:18:18;98045.00;;;9.30;73.39
76195;BME280;64964;48.694;21.206;2024-03-17T01:20:44;98053.41;;;9.34;73.83
76195;BME280;64964;48.694;21.206;2024-03-17T01:23:09;98042.34;;;9.30;73.76
76195;BME280;64964;48.694;21.206;2024-03-17T01:25:35;98043.84;;;9.33;73.54
76195;BME280;64964;48.694;21.206;2024-03-17T01:28:04;98043.69;;;9.34;73.45
76195;BME280;64964;48.694;21.206;2024-03-17T01:30:29;98054.06;;;9.36;73.39
76195;BME280;64964;48.694;21.206;2024-03-17T01:32:55;98037.28;;;9.37;73.12
76195;BME280;64964;48.694;21.206;2024-03-17T01:35:20;98041.69;;;9.36;73.11
76195;BME280;64964;48.694;21.206;2024-03-17T01:37:46;98046.84;;;9.38;73.37
76195;BME280;64964;48.694;21.206;2024-03-17T01:40:12;98045.19;;;9.37;73.41
76195;BME280;64964;48.694;21.206;2024-03-17T01:42:38;98052.25;;;9.36;73.12
76195;BME280;64964;48.694;21.206;2024-03-17T01:45:23;98036.88;;;9.23;74.03
76195;BME280;64964;48.694;21.206;2024-03-17T01:47:51;98052.41;;;9.35;73.38
76195;BME280;64964;48.694;21.206;2024-03-17T01:50:16;98053.25;;;9.35;73.41
76195;BME280;64964;48.694;21.206;2024-03-17T01:52:46;98047.47;;;9.32;73.34
76195;BME280;64964;48.694;21.206;2024-03-17T01:55:12;98056.69;;;9.36;73.57
76195;BME280;64964;48.694;21.206;2024-03-17T01:57:38;98051.59;;;9.34;73.49
76195;BME280;64964;48.694;21.206;2024-03-17T02:00:04;98059.50;;;9.34;73.57
76195;BME280;64964;48.694;21.206;2024-03-17T02:02:33;98048.78;;;9.36;73.35
76195;BME280;64964;48.694;21.206;2024-03-17T02:04:59;98054.75;;;9.38;73.19
76195;BME280;64964;48.694;21.206;2024-03-17T02:07:24;98053.94;;;9.37;73.45
76195;BME280;64964;48.694;21.206;2024-03-17T02:09:50;98046.00;;;9.37;73.37
76195;BME280;64964;48.694;21.206;2024-03-17T02:12:15;98033.09;;;9.26;73.29
76195;BME280;64964;48.694;21.206;2024-03-17T02:14:41;98040.03;;;9.27;73.25
76195;BME280;64964;48.694;21.206;2024-03-17T02:17:06;98047.47;;;9.32;73.07
76195;BME280;64964;48.694;21.206;2024-03-17T02:19:31;98051.59;;;9.34;73.13
76195;BME280;64964;48.694;21.206;2024-03-17T02:21:57;98055.06;;;9.35;72.79
76195;BME280;64964;48.694;21.206;2024-03-17T02:24:22;98049.28;;;9.31;73.22
76195;BME280;64964;48.694;21.206;2024-03-17T02:26:48;98050.59;;;9.35;73.07
76195;BME280;64964;48.694;21.206;2024-03-17T02:29:13;98046.31;;;9.34;73.36
76195;BME280;64964;48.694;21.206;2024-03-17T02:31:39;98048.97;;;9.34;73.20
76195;BME280;64964;48.694;21.206;2024-03-17T02:34:04;98042.69;;;9.35;73.19
76195;BME280;64964;48.694;21.206;2024-03-17T02:36:29;98035.78;;;9.34;73.14
76195;BME280;64964;48.694;21.206;2024-03-17T02:38:55;98042.53;;;9.37;73.12
76195;BME280;64964;48.694;21.206;2024-03-17T02:41:42;98042.53;;;9.37;73.27
76195;BME280;64964;48.694;21.206;2024-03-17T02:44:07;98042.38;;;9.38;73.18
76195;BME280;64964;48.694;21.206;2024-03-17T02:46:33;98037.09;;;9.38;73.09
76195;BME280;64964;48.694;21.206;2024-03-17T02:48:59;98047.47;;;9.40;72.92
76195;BME280;64964;48.694;21.206;2024-03-17T02:51:24;98043.38;;;9.37;72.99
76195;BME280;64964;48.694;21.206;2024-03-17T02:53:50;98043.50;;;9.36;72.98
76195;BME280;64964;48.694;21.206;2024-03-17T02:56:17;98039.91;;;9.37;72.94
76195;BME280;64964;48.694;21.206;2024-03-17T02:58:44;98042.69;;;9.35;73.24
76195;BME280;64964;48.694;21.206;2024-03-17T03:01:09;98049.63;;;9.36;72.85
76195;BME280;64964;48.694;21.206;2024-03-17T03:03:36;98044.50;;;9.35;73.25
76195;BME280;64964;48.694;21.206;2024-03-17T03:06:01;98045.50;;;9.34;73.05
76195;BME280;64964;48.694;21.206;2024-03-17T03:08:32;98039.41;;;9.33;73.28
76195;BME280;64964;48.694;21.206;2024-03-17T03:10:59;98006.19;;;9.14;72.98
76195;BME280;64964;48.694;21.206;2024-03-17T03:13:24;98040.41;;;9.32;73.16
76195;BME280;64964;48.694;21.206;2024-03-17T03:15:49;98042.03;;;9.33;72.93
76195;BME280;64964;48.694;21.206;2024-03-17T03:18:15;98037.25;;;9.29;73.07
76195;BME280;64964;48.694;21.206;2024-03-17T03:20:40;98045.97;;;9.29;72.79
76195;BME280;64964;48.694;21.206;2024-03-17T03:23:06;98049.63;;;9.28;72.95
76195;BME280;64964;48.694;21.206;2024-03-17T03:25:31;98033.59;;;9.21;72.86
76195;BME280;64964;48.694;21.206;2024-03-17T03:27:57;98036.06;;;9.23;72.88
76195;BME280;64964;48.694;21.206;2024-03-17T03:30:25;98012.13;;;9.08;73.12
76195;BME280;64964;48.694;21.206;2024-03-17T03:32:52;98039.88;;;9.29;73.08
76195;BME280;64964;48.694;21.206;2024-03-17T03:35:17;98039.06;;;9.28;72.92
76195;BME280;64964;48.694;21.206;2024-03-17T03:37:43;98038.88;;;9.30;72.65
76195;BME280;64964;48.694;21.206;2024-03-17T03:40:08;98027.50;;;9.21;72.69
76195;BME280;64964;48.694;21.206;2024-03-17T03:42:44;98023.69;;;9.23;72.84
76195;BME280;64964;48.694;21.206;2024-03-17T03:45:10;98028.66;;;9.27;72.76
76195;BME280;64964;48.694;21.206;2024-03-17T03:47:39;98041.34;;;9.31;72.76
76195;BME280;64964;48.694;21.206;2024-03-17T03:50:07;98040.72;;;9.29;72.91
76195;BME280;64964;48.694;21.206;2024-03-17T03:52:35;98036.09;;;9.31;72.76
76195;BME280;64964;48.694;21.206;2024-03-17T03:55:00;98031.81;;;9.30;72.84
76195;BME280;64964;48.694;21.206;2024-03-17T03:57:26;98031.63;;;9.32;72.60
76195;BME280;64964;48.694;21.206;2024-03-17T03:59:55;98033.31;;;9.33;72.68
76195;BME280;64964;48.694;21.206;2024-03-17T04:02:21;98035.13;;;9.32;72.72
76195;BME280;64964;48.694;21.206;2024-03-17T04:04:46;98023.53;;;9.17;72.96
76195;BME280;64964;48.694;21.206;2024-03-17T04:07:13;98040.41;;;9.32;73.11
76195;BME280;64964;48.694;21.206;2024-03-17T04:09:38;98042.03;;;9.33;73.06
76195;BME280;64964;48.694;21.206;2024-03-17T04:12:03;98049.94;;;9.33;72.86
76195;BME280;64964;48.694;21.206;2024-03-17T04:14:29;98025.50;;;9.23;73.06
76195;BME280;64964;48.694;21.206;2024-03-17T04:16:56;98051.44;;;9.36;72.64
76195;BME280;64964;48.694;21.206;2024-03-17T04:19:21;98047.97;;;9.35;72.75
76195;BME280;64964;48.694;21.206;2024-03-17T04:21:46;98002.06;;;9.04;72.63
76195;BME280;64964;48.694;21.206;2024-03-17T04:24:12;98054.06;;;9.36;72.58
76195;BME280;64964;48.694;21.206;2024-03-17T04:26:37;98061.03;;;9.37;72.74
76195;BME280;64964;48.694;21.206;2024-03-17T04:29:03;98031.56;;;9.15;72.55
76195;BME280;64964;48.694;21.206;2024-03-17T04:31:31;98063.78;;;9.35;72.69
76195;BME280;64964;48.694;21.206;2024-03-17T04:33:56;98063.97;;;9.34;72.49
76195;BME280;64964;48.694;21.206;2024-03-17T04:36:22;98065.28;;;9.30;72.72
76195;BME280;64964;48.694;21.206;2024-03-17T04:38:47;98060.47;;;9.25;72.74
76195;BME280;64964;48.694;21.206;2024-03-17T04:41:17;98071.38;;;9.30;72.90
76195;BME280;64964;48.694;21.206;2024-03-17T04:43:42;98075.50;;;9.33;73.07
76195;BME280;64964;48.694;21.206;2024-03-17T04:46:08;98074.69;;;9.32;72.77
76195;BME280;64964;48.694;21.206;2024-03-17T04:48:37;98060.31;;;9.27;72.89
76195;BME280;64964;48.694;21.206;2024-03-17T04:51:03;98061.59;;;9.22;73.23
76195;BME280;64964;48.694;21.206;2024-03-17T04:53:29;98079.97;;;9.32;73.17
76195;BME280;64964;48.694;21.206;2024-03-17T04:56:12;98080.09;;;9.31;74.35
76195;BME280;64964;48.694;21.206;2024-03-17T04:58:38;98082.44;;;9.34;73.34
76195;BME280;64964;48.694;21.206;2024-03-17T05:01:07;98076.31;;;9.25;73.73
76195;BME280;64964;48.694;21.206;2024-03-17T05:03:33;98086.72;;;9.35;73.43
76195;BME280;64964;48.694;21.206;2024-03-17T05:06:03;98073.50;;;9.27;73.84
76195;BME280;64964;48.694;21.206;2024-03-17T05:08:29;98091.16;;;9.34;73.77
76195;BME280;64964;48.694;21.206;2024-03-17T05:10:57;98093.00;;;9.34;73.75
76195;BME280;64964;48.694;21.206;2024-03-17T05:13:22;98084.56;;;9.30;73.76
76195;BME280;64964;48.694;21.206;2024-03-17T05:15:48;98095.63;;;9.34;73.80
76195;BME280;64964;48.694;21.206;2024-03-17T05:18:13;98104.19;;;9.36;74.65
76195;BME280;64964;48.694;21.206;2024-03-17T05:20:38;98077.63;;;9.29;74.05
76195;BME280;64964;48.694;21.206;2024-03-17T05:23:04;98096.28;;;9.36;74.40
76195;BME280;64964;48.694;21.206;2024-03-17T05:25:29;98098.28;;;9.34;74.20
76195;BME280;64964;48.694;21.206;2024-03-17T05:27:55;98102.91;;;9.40;74.00
76195;BME280;64964;48.694;21.206;2024-03-17T05:30:20;98103.22;;;9.37;74.31
76195;BME280;64964;48.694;21.206;2024-03-17T05:32:46;98108.50;;;9.37;74.31
76195;BME280;64964;48.694;21.206;2024-03-17T05:35:11;98111.97;;;9.37;74.17
76195;BME280;64964;48.694;21.206;2024-03-17T05:37:37;98109.47;;;9.36;74.27
76195;BME280;64964;48.694;21.206;2024-03-17T05:40:03;98113.09;;;9.35;74.24
76195;BME280;64964;48.694;21.206;2024-03-17T05:42:28;98113.09;;;9.35;74.59
76195;BME280;64964;48.694;21.206;2024-03-17T05:44:54;98124.34;;;9.37;74.57
76195;BME280;64964;48.694;21.206;2024-03-17T05:47:19;98131.25;;;9.38;74.45
76195;BME280;64964;48.694;21.206;2024-03-17T05:49:45;98128.63;;;9.38;74.05
76195;BME280;64964;48.694;21.206;2024-03-17T05:52:11;98119.53;;;9.32;73.96
76195;BME280;64964;48.694;21.206;2024-03-17T05:54:36;98122.50;;;9.29;73.97
76195;BME280;64964;48.694;21.206;2024-03-17T05:57:03;98131.88;;;9.32;73.55
76195;BME280;64964;48.694;21.206;2024-03-17T05:59:30;98139.78;;;9.32;73.30
76195;BME280;64964;48.694;21.206;2024-03-17T06:01:56;98133.69;;;9.31;73.17
76195;BME280;64964;48.694;21.206;2024-03-17T06:04:21;98140.13;;;9.29;73.04
76195;BME280;64964;48.694;21.206;2024-03-17T06:06:47;98152.63;;;9.27;72.66
76195;BME280;64964;48.694;21.206;2024-03-17T06:09:14;98146.53;;;9.26;72.77
76195;BME280;64964;48.694;21.206;2024-03-17T06:11:43;98149.47;;;9.23;72.58
76195;BME280;64964;48.694;21.206;2024-03-17T06:14:08;98154.94;;;9.21;72.40
76195;BME280;64964;48.694;21.206;2024-03-17T06:16:37;98155.91;;;9.20;72.41
76195;BME280;64964;48.694;21.206;2024-03-17T06:19:02;98155.09;;;9.20;72.32
76195;BME280;64964;48.694;21.206;2024-03-17T06:21:28;98155.22;;;9.18;71.77
76195;BME280;64964;48.694;21.206;2024-03-17T06:23:53;98156.53;;;9.14;71.45
76195;BME280;64964;48.694;21.206;2024-03-17T06:26:19;98155.19;;;9.10;71.54
76195;BME280;64964;48.694;21.206;2024-03-17T06:28:46;98154.06;;;9.13;71.11
76195;BME280;64964;48.694;21.206;2024-03-17T06:31:11;98169.38;;;9.09;70.77
76195;BME280;64964;48.694;21.206;2024-03-17T06:33:36;98159.06;;;8.98;70.59
76195;BME280;64964;48.694;21.206;2024-03-17T06:36:03;98161.03;;;8.96;70.94
76195;BME280;64964;48.694;21.206;2024-03-17T06:38:32;98175.41;;;9.02;70.55
76195;BME280;64964;48.694;21.206;2024-03-17T06:40:57;98173.59;;;9.02;69.88
76195;BME280;64964;48.694;21.206;2024-03-17T06:43:23;98198.63;;;8.98;68.57
76195;BME280;64964;48.694;21.206;2024-03-17T06:45:58;98182.91;;;8.88;67.54
76195;BME280;64964;48.694;21.206;2024-03-17T06:48:25;98195.72;;;8.83;67.38
76195;BME280;64964;48.694;21.206;2024-03-17T06:50:51;98202.59;;;8.76;67.20
76195;BME280;64964;48.694;21.206;2024-03-17T06:53:18;98202.38;;;8.69;67.05
76195;BME280;64964;48.694;21.206;2024-03-17T06:55:44;98203.44;;;8.59;66.73
76195;BME280;64964;48.694;21.206;2024-03-17T06:58:11;98209.69;;;8.58;67.03
76195;BME280;64964;48.694;21.206;2024-03-17T07:00:37;98208.19;;;8.55;66.75
76195;BME280;64964;48.694;21.206;2024-03-17T07:03:02;98185.84;;;8.32;66.15
76195;BME280;64964;48.694;21.206;2024-03-17T07:05:27;98219.34;;;8.49;66.40
76195;BME280;64964;48.694;21.206;2024-03-17T07:07:55;98217.91;;;8.37;64.29
76195;BME280;64964;48.694;21.206;2024-03-17T07:10:20;98229.78;;;8.41;65.92
76195;BME280;64964;48.694;21.206;2024-03-17T07:12:45;98212.06;;;8.33;65.52
76195;BME280;64964;48.694;21.206;2024-03-17T07:15:11;98207.84;;;8.22;65.22
76195;BME280;64964;48.694;21.206;2024-03-17T07:17:36;98213.78;;;8.24;65.47
76195;BME280;64964;48.694;21.206;2024-03-17T07:20:02;98219.88;;;8.25;65.32
76195;BME280;64964;48.694;21.206;2024-03-17T07:22:28;98238.03;;;8.28;64.94
76195;BME280;64964;48.694;21.206;2024-03-17T07:24:54;98233.06;;;8.25;65.12
76195;BME280;64964;48.694;21.206;2024-03-17T07:27:22;98234.72;;;8.26;64.61
76195;BME280;64964;48.694;21.206;2024-03-17T07:29:47;98231.41;;;8.24;64.71
76195;BME280;64964;48.694;21.206;2024-03-17T07:32:12;98229.06;;;8.21;64.98
76195;BME280;64964;48.694;21.206;2024-03-17T07:34:38;98231.97;;;8.18;64.75
76195;BME280;64964;48.694;21.206;2024-03-17T07:37:03;98226.63;;;8.10;65.07
76195;BME280;64964;48.694;21.206;2024-03-17T07:39:29;98231.59;;;8.13;65.03
76195;BME280;64964;48.694;21.206;2024-03-17T07:41:59;98233.41;;;8.12;65.16
76195;BME280;64964;48.694;21.206;2024-03-17T07:44:25;98228.72;;;8.06;65.04
76195;BME280;64964;48.694;21.206;2024-03-17T07:46:50;98235.34;;;8.10;65.08
76195;BME280;64964;48.694;21.206;2024-03-17T07:49:16;98231.06;;;8.09;64.70
76195;BME280;64964;48.694;21.206;2024-03-17T07:51:41;98230.91;;;8.11;64.35
76195;BME280;64964;48.694;21.206;2024-03-17T07:54:09;98222.94;;;8.03;64.55
76195;BME280;64964;48.694;21.206;2024-03-17T07:56:34;98212.19;;;7.96;63.41
76195;BME280;64964;48.694;21.206;2024-03-17T07:58:59;98219.47;;;8.02;64.10
76195;BME280;64964;48.694;21.206;2024-03-17T08:01:25;98241.59;;;8.09;64.21
76195;BME280;64964;48.694;21.206;2024-03-17T08:03:50;98238.81;;;8.11;64.05
76195;BME280;64964;48.694;21.206;2024-03-17T08:06:20;98237.69;;;8.13;63.83
76195;BME280;64964;48.694;21.206;2024-03-17T08:08:46;98218.88;;;8.08;63.53
76195;BME280;64964;48.694;21.206;2024-03-17T08:11:11;98223.34;;;8.08;63.66
76195;BME280;64964;48.694;21.206;2024-03-17T08:13:37;98236.97;;;8.21;63.54
76195;BME280;64964;48.694;21.206;2024-03-17T08:16:04;98225.75;;;8.19;63.78
76195;BME280;64964;48.694;21.206;2024-03-17T08:18:35;98235.41;;;8.28;63.59
76195;BME280;64964;48.694;21.206;2024-03-17T08:21:02;98239.41;;;8.32;63.19
76195;BME280;64964;48.694;21.206;2024-03-17T08:23:29;98239.81;;;8.37;63.31
76195;BME280;64964;48.694;21.206;2024-03-17T08:26:00;98243.25;;;8.38;62.92
76195;BME280;64964;48.694;21.206;2024-03-17T08:28:26;98249.06;;;8.41;63.22
76195;BME280;64964;48.694;21.206;2024-03-17T08:31:02;98239.19;;;8.43;63.16
76195;BME280;64964;48.694;21.206;2024-03-17T08:33:29;98246.81;;;8.46;63.34
76195;BME280;64964;48.694;21.206;2024-03-17T08:38:22;98255.69;;;8.45;63.00
76195;BME280;64964;48.694;21.206;2024-03-17T08:40:49;98258.84;;;8.49;62.97
76195;BME280;64964;48.694;21.206;2024-03-17T08:43:15;98259.53;;;8.51;63.33
76195;BME280;64964;48.694;21.206;2024-03-17T08:45:40;98255.31;;;8.58;63.69
76195;BME280;64964;48.694;21.206;2024-03-17T08:48:06;98251.78;;;8.67;63.65
76195;BME280;64964;48.694;21.206;2024-03-17T08:50:31;98217.38;;;8.51;63.85
76195;BME280;64964;48.694;21.206;2024-03-17T08:52:59;98253.56;;;8.85;63.48
76195;BME280;64964;48.694;21.206;2024-03-17T08:55:24;98255.44;;;8.92;63.70
76195;BME280;64964;48.694;21.206;2024-03-17T08:57:50;98254.81;;;8.98;63.63
76195;BME280;64964;48.694;21.206;2024-03-17T09:00:15;98250.06;;;9.02;63.27
76195;BME280;64964;48.694;21.206;2024-03-17T09:02:41;98256.56;;;9.08;62.61
76195;BME280;64964;48.694;21.206;2024-03-17T09:05:06;98251.81;;;9.11;62.77
76195;BME280;64964;48.694;21.206;2024-03-17T09:07:32;98243.38;;;9.08;62.77
76195;BME280;64964;48.694;21.206;2024-03-17T09:09:58;98252.19;;;9.16;62.64
76195;BME280;64964;48.694;21.206;2024-03-17T09:12:25;98245.38;;;9.14;62.67
76195;BME280;64964;48.694;21.206;2024-03-17T09:14:50;98242.91;;;9.12;62.97
76195;BME280;64964;48.694;21.206;2024-03-17T09:17:16;98216.78;;;9.01;63.45
76195;BME280;64964;48.694;21.206;2024-03-17T09:19:44;98245.91;;;9.17;63.69
76195;BME280;64964;48.694;21.206;2024-03-17T09:22:10;98259.00;;;9.27;64.06
76195;BME280;64964;48.694;21.206;2024-03-17T09:24:35;98248.78;;;9.24;63.87
76195;BME280;64964;48.694;21.206;2024-03-17T09:27:01;98221.13;;;9.10;64.05
76195;BME280;64964;48.694;21.206;2024-03-17T09:29:26;98247.47;;;9.28;63.92
76195;BME280;64964;48.694;21.206;2024-03-17T09:31:52;98203.25;;;8.96;64.39
76195;BME280;64964;48.694;21.206;2024-03-17T09:34:17;98247.63;;;9.27;64.38
76195;BME280;64964;48.694;21.206;2024-03-17T09:36:43;98238.50;;;9.21;64.41
76195;BME280;64964;48.694;21.206;2024-03-17T09:39:09;98233.84;;;9.15;64.35
76195;BME280;64964;48.694;21.206;2024-03-17T09:41:38;98247.91;;;9.23;64.07
76195;BME280;64964;48.694;21.206;2024-03-17T09:44:05;98246.44;;;9.21;63.83
76195;BME280;64964;48.694;21.206;2024-03-17T09:46:33;98251.03;;;9.19;64.41
76195;BME280;64964;48.694;21.206;2024-03-17T09:48:59;98256.16;;;9.20;64.58
76195;BME280;64964;48.694;21.206;2024-03-17T09:51:25;98251.53;;;9.22;64.60
76195;BME280;64964;48.694;21.206;2024-03-17T09:53:51;98257.66;;;9.23;64.36
76195;BME280;64964;48.694;21.206;2024-03-17T09:56:19;98242.75;;;9.14;64.47
76195;BME280;64964;48.694;21.206;2024-03-17T09:58:49;98257.50;;;9.25;64.94
76195;BME280;64964;48.694;21.206;2024-03-17T10:01:15;98253.19;;;9.23;64.96
76195;BME280;64964;48.694;21.206;2024-03-17T10:03:51;98259.69;;;9.29;64.46
76195;BME280;64964;48.694;21.206;2024-03-17T10:06:19;98262.97;;;9.31;64.45
76195;BME280;64964;48.694;21.206;2024-03-17T10:08:48;98268.13;;;9.33;64.45
76195;BME280;64964;48.694;21.206;2024-03-17T10:11:16;98256.34;;;9.27;64.16
76195;BME280;64964;48.694;21.206;2024-03-17T10:13:46;98269.28;;;9.38;63.97
76195;BME280;64964;48.694;21.206;2024-03-17T10:16:28;98264.31;;;9.35;62.50
76195;BME280;64964;48.694;21.206;2024-03-17T10:19:06;98258.22;;;9.35;63.28
76195;BME280;64964;48.694;21.206;2024-03-17T10:21:40;98257.09;;;9.37;63.56
76195;BME280;64964;48.694;21.206;2024-03-17T10:24:07;98260.75;;;9.44;63.52
76195;BME280;64964;48.694;21.206;2024-03-17T10:26:57;98257.44;;;9.42;63.83
76195;BME280;64964;48.694;21.206;2024-03-17T10:31:54;98248.75;;;9.50;63.03
76195;BME280;64964;48.694;21.206;2024-03-17T10:34:21;98240.53;;;9.53;63.11
76195;BME280;64964;48.694;21.206;2024-03-17T10:37:05;98242.53;;;9.59;62.45
76195;BME280;64964;48.694;21.206;2024-03-17T10:39:31;98207.66;;;9.47;62.10
76195;BME280;64964;48.694;21.206;2024-03-17T10:41:59;98234.47;;;9.69;61.89
76195;BME280;64964;48.694;21.206;2024-03-17T10:44:29;98222.78;;;9.71;61.29
76195;BME280;64964;48.694;21.206;2024-03-17T10:46:56;98228.78;;;9.90;61.60
76195;BME280;64964;48.694;21.206;2024-03-17T10:49:30;98227.00;;;9.98;61.64
76195;BME280;64964;48.694;21.206;2024-03-17T10:52:06;98235.47;;;10.10;60.74
76195;BME280;64964;48.694;21.206;2024-03-17T10:54:34;98242.44;;;10.19;61.52
76195;BME280;64964;48.694;21.206;2024-03-17T10:59:55;98231.59;;;10.31;60.62
76195;BME280;64964;48.694;21.206;2024-03-17T11:02:22;98217.91;;;10.35;59.76
76195;BME280;64964;48.694;21.206;2024-03-17T11:04:56;98209.63;;;10.30;60.05
76195;BME280;64964;48.694;21.206;2024-03-17T11:07:23;98188.28;;;10.23;60.50
76195;BME280;64964;48.694;21.206;2024-03-17T11:09:50;98219.56;;;10.53;59.04
76195;BME280;64964;48.694;21.206;2024-03-17T11:12:42;98215.28;;;10.60;57.54
76195;BME280;64964;48.694;21.206;2024-03-17T11:17:49;98214.47;;;10.84;58.71
76195;BME280;64964;48.694;21.206;2024-03-17T11:22:54;98220.06;;;11.13;58.15
76195;BME280;64964;48.694;21.206;2024-03-17T11:27:51;98207.97;;;11.27;57.55
76195;BME280;64964;48.694;21.206;2024-03-17T11:39:02;98143.16;;;12.48;49.02
76195;BME280;64964;48.694;21.206;2024-03-17T11:47:04;98191.59;;;13.69;51.79
76195;BME280;64964;48.694;21.206;2024-03-17T11:49:40;98179.03;;;13.78;49.49
76195;BME280;64964;48.694;21.206;2024-03-17T11:52:12;98170.78;;;13.88;51.69
76195;BME280;64964;48.694;21.206;2024-03-17T11:54:40;98163.19;;;13.85;51.40
76195;BME280;64964;48.694;21.206;2024-03-17T11:57:08;98156.03;;;13.85;50.79
76195;BME280;64964;48.694;21.206;2024-03-17T11:59:35;98163.06;;;13.93;50.32
76195;BME280;64964;48.694;21.206;2024-03-17T12:02:02;98150.34;;;13.88;50.44
76195;BME280;64964;48.694;21.206;2024-03-17T12:04:28;98160.59;;;13.91;50.21
76195;BME280;64964;48.694;21.206;2024-03-17T12:06:57;98161.59;;;13.90;49.80
76195;BME280;64964;48.694;21.206;2024-03-17T12:12:02;98147.78;;;13.80;46.52
76195;BME280;64964;48.694;21.206;2024-03-17T12:14:29;98148.88;;;13.86;48.39
76195;BME280;64964;48.694;21.206;2024-03-17T12:16:57;98092.94;;;13.58;46.54
76195;BME280;64964;48.694;21.206;2024-03-17T12:19:24;98143.00;;;13.90;46.90
76195;BME280;64964;48.694;21.206;2024-03-17T12:21:52;98124.94;;;13.86;46.87
76195;BME280;64964;48.694;21.206;2024-03-17T12:24:21;98128.31;;;13.94;46.21
76195;BME280;64964;48.694;21.206;2024-03-17T12:26:49;98125.09;;;13.99;47.25
76195;BME280;64964;48.694;21.206;2024-03-17T12:29:28;98094.13;;;13.91;44.45
76195;BME280;64964;48.694;21.206;2024-03-17T12:32:14;98115.16;;;14.29;44.48
76195;BME280;64964;48.694;21.206;2024-03-17T12:34:44;98115.22;;;14.51;45.96
76195;BME280;64964;48.694;21.206;2024-03-17T12:37:20;98109.88;;;14.72;41.96
76195;BME280;64964;48.694;21.206;2024-03-17T12:39:46;98118.25;;;14.97;45.89
76195;BME280;64964;48.694;21.206;2024-03-17T12:42:14;98116.53;;;15.17;44.93
76195;BME280;64964;48.694;21.206;2024-03-17T12:44:47;98112.69;;;15.33;42.19
76195;BME280;64964;48.694;21.206;2024-03-17T12:47:15;98115.03;;;15.43;42.81
76195;BME280;64964;48.694;21.206;2024-03-17T12:49:56;98114.38;;;15.41;40.73
76195;BME280;64964;48.694;21.206;2024-03-17T12:52:29;98108.44;;;15.39;39.57
76195;BME280;64964;48.694;21.206;2024-03-17T12:55:02;98061.41;;;15.18;36.98
76195;BME280;64964;48.694;21.206;2024-03-17T12:57:49;98102.09;;;15.47;42.30
76195;BME280;64964;48.694;21.206;2024-03-17T13:00:33;98099.25;;;15.48;41.74
76195;BME280;64964;48.694;21.206;2024-03-17T13:03:06;98104.19;;;15.51;40.34
76195;BME280;64964;48.694;21.206;2024-03-17T13:05:33;98099.03;;;15.43;41.22
76195;BME280;64964;48.694;21.206;2024-03-17T13:07:59;98106.38;;;15.34;41.87
76195;BME280;64964;48.694;21.206;2024-03-17T13:10:25;98103.44;;;15.23;42.18
76195;BME280;64964;48.694;21.206;2024-03-17T13:13:04;98103.53;;;15.08;37.72
76195;BME280;64964;48.694;21.206;2024-03-17T13:15:31;98115.16;;;15.00;41.60
76195;BME280;64964;48.694;21.206;2024-03-17T13:18:00;98109.13;;;14.85;40.41
76195;BME280;64964;48.694;21.206;2024-03-17T13:20:25;98105.53;;;14.71;40.78
76195;BME280;64964;48.694;21.206;2024-03-17T13:22:51;98107.06;;;14.59;40.42
76195;BME280;64964;48.694;21.206;2024-03-17T13:25:18;98105.50;;;14.43;41.17
76195;BME280;64964;48.694;21.206;2024-03-17T13:27:47;98100.69;;;14.32;40.88
76195;BME280;64964;48.694;21.206;2024-03-17T13:30:16;98104.03;;;14.19;39.95